Bear Creek@Ashland

Start Stop
DateFlow
CFS
Gauge
Feet
DateFlow
CFS
Gauge
Feet
10/31/2020 00:157-0.11
10/30/2020 23:157-0.09
10/30/2020 22:157-0.09
10/30/2020 21:157-0.1
10/30/2020 20:157-0.1
10/30/2020 19:157-0.09
10/30/2020 18:157-0.09
10/30/2020 17:157-0.09
10/30/2020 16:158-0.08
10/30/2020 15:158-0.06
10/30/2020 14:158-0.05
10/30/2020 13:158-0.07
10/30/2020 12:157-0.09
10/30/2020 11:157-0.09
10/30/2020 10:156-0.15
10/30/2020 09:155-0.18
10/30/2020 08:155-0.19
10/30/2020 07:156-0.15
10/30/2020 06:155-0.18
10/30/2020 05:155-0.2
10/30/2020 04:155-0.18
10/30/2020 03:156-0.17
10/30/2020 02:156-0.15
10/30/2020 01:157-0.13
10/30/2020 00:15 -0.1
10/29/2020 23:15 -0.1
10/29/2020 22:157-0.09
10/29/2020 21:158-0.08
10/29/2020 20:158-0.08
10/29/2020 19:157-0.09
10/29/2020 18:15 -0.09
10/29/2020 17:157-0.11
10/29/2020 16:155-0.19
10/29/2020 15:158-0.06
10/29/2020 14:158-0.06
10/29/2020 13:159-0.02
10/29/2020 12:15 -0.03
10/29/2020 11:15 -0.04
10/29/2020 10:159-0.04
10/29/2020 09:158-0.05
10/29/2020 08:157-0.1
10/29/2020 07:157-0.13
10/29/2020 06:155-0.21
10/29/2020 05:15 -0.19
10/29/2020 04:155-0.2
10/29/2020 03:156-0.17
10/29/2020 02:156-0.17
10/29/2020 01:157-0.12
10/29/2020 00:15 -0.1
10/28/2020 23:157-0.09
10/28/2020 22:158-0.08
10/28/2020 21:15 -0.07
10/28/2020 20:15 -0.07
10/28/2020 19:158-0.06
10/28/2020 18:159-0.04
10/28/2020 17:158-0.06
10/28/2020 16:158-0.08
10/28/2020 15:159-0.04
10/28/2020 14:159-0.04
10/28/2020 13:158-0.06
10/28/2020 12:159-0.03
10/28/2020 11:15 -0.02
10/28/2020 10:159-0.04
10/28/2020 09:158-0.05
10/28/2020 08:156-0.14
10/28/2020 07:156-0.17
10/28/2020 06:155-0.19
10/28/2020 05:15 -0.19
10/28/2020 04:15 -0.18
10/28/2020 03:155-0.18
10/28/2020 02:156-0.16
10/28/2020 01:157-0.12
10/28/2020 00:157-0.11
10/27/2020 23:158-0.06
10/27/2020 22:15 -0.05
10/27/2020 21:15 -0.08
10/27/2020 20:15 -0.06
10/27/2020 19:15 -0.07
10/27/2020 18:15 -0.08
10/27/2020 17:15 -0.08
10/27/2020 16:15 -0.07
10/27/2020 15:15 -0.07
10/27/2020 14:15 -0.06
10/27/2020 13:15 -0.05
10/27/2020 12:15 -0.05
10/27/2020 11:15 -0.06
10/27/2020 10:158-0.06
10/27/2020 09:157-0.1
10/27/2020 08:156-0.14
10/27/2020 06:155-0.21
10/27/2020 05:15 -0.22
10/27/2020 04:15 -0.23
10/27/2020 03:15 -0.2
10/27/2020 02:155-0.18
10/27/2020 01:156-0.14
10/27/2020 00:157-0.11
10/26/2020 23:15 -0.1
10/26/2020 22:15 -0.1
10/26/2020 21:157-0.09
10/26/2020 20:158-0.08
10/26/2020 19:157-0.09
10/26/2020 18:157-0.09
10/26/2020 17:158-0.08
10/26/2020 16:15 -0.07
10/26/2020 15:15 -0.05
10/26/2020 14:15 -0.07
10/26/2020 13:15 -0.07
10/26/2020 12:158-0.05
10/26/2020 11:159-0.04
10/26/2020 10:15100.02
10/26/2020 09:156-0.14
10/26/2020 08:155-0.2
10/26/2020 07:154-0.24
10/26/2020 06:15 -0.25
10/26/2020 05:154-0.24
10/26/2020 04:155-0.23
10/26/2020 03:15 -0.19
10/26/2020 02:155-0.19
10/26/2020 01:156-0.17
10/26/2020 00:156-0.14
10/25/2020 23:157-0.13
10/25/2020 22:15 -0.12
10/25/2020 21:15 -0.11
10/25/2020 20:15 -0.1
10/25/2020 19:15 -0.1
10/25/2020 18:157 
10/25/2020 17:158-0.07
10/25/2020 16:15 -0.06
10/25/2020 15:158-0.05
10/25/2020 14:159-0.04
10/25/2020 13:158-0.06
10/25/2020 12:15 -0.05
10/25/2020 11:158-0.06
10/25/2020 10:157-0.1
10/25/2020 09:155-0.18
10/25/2020 08:156-0.16
10/25/2020 07:155-0.18
10/25/2020 06:156-0.16
10/25/2020 05:155-0.21
10/25/2020 04:155-0.19
10/25/2020 03:156-0.16
10/25/2020 02:15 -0.17
10/25/2020 01:156-0.14
10/25/2020 00:157-0.12
10/24/2020 23:15 -0.11
10/24/2020 22:157-0.1
10/24/2020 21:158-0.07
10/24/2020 20:15 -0.08
10/24/2020 19:15 -0.07
10/24/2020 18:15 -0.07
10/24/2020 17:15 -0.06
10/24/2020 15:15 -0.06
10/24/2020 14:15 -0.05
10/24/2020 11:15 -0.05
10/24/2020 10:158-0.07
10/24/2020 09:157-0.12
10/24/2020 08:156-0.15
10/24/2020 07:155-0.18
10/24/2020 06:156-0.17
10/24/2020 05:155-0.18
10/24/2020 04:155-0.19
10/24/2020 03:156-0.17
10/24/2020 02:15 -0.17
10/24/2020 01:156-0.14
10/24/2020 00:157-0.11
10/23/2020 23:157-0.09
10/23/2020 22:158-0.07
10/23/2020 21:157-0.09
10/23/2020 18:157-0.09
10/23/2020 17:158-0.08
10/23/2020 16:15 -0.08
10/23/2020 15:15 -0.07
10/23/2020 14:15 -0.05
10/23/2020 13:15 -0.05
10/23/2020 12:15 -0.06
10/23/2020 11:158-0.05
10/23/2020 10:159-0.04
10/23/2020 09:157-0.1
10/23/2020 08:157-0.12
10/23/2020 07:155-0.21
10/23/2020 06:15 -0.22
10/23/2020 03:15 -0.22
10/23/2020 02:155-0.18
10/23/2020 01:156-0.15
10/23/2020 00:157-0.11
10/22/2020 23:15 -0.11
10/22/2020 22:15 -0.1
10/22/2020 21:15 -0.11
10/22/2020 20:15 -0.12
10/22/2020 19:15 -0.09
10/22/2020 18:157-0.1
10/22/2020 17:158-0.08
10/22/2020 16:15 -0.07
10/22/2020 15:15 -0.06
10/22/2020 12:158-0.06
10/22/2020 11:159-0.04
10/22/2020 10:159-0.04
10/22/2020 09:156-0.14
10/22/2020 08:155-0.2
10/22/2020 06:154-0.25
10/22/2020 04:15 -0.25
10/22/2020 03:154-0.24
10/22/2020 02:155-0.19
10/22/2020 01:156-0.14
10/22/2020 00:157-0.12
10/21/2020 23:15 -0.1
10/21/2020 22:15 -0.11
10/21/2020 21:15 -0.1
10/21/2020 20:15 -0.09
10/21/2020 19:15 -0.1
10/21/2020 18:15 -0.1
10/21/2020 17:157-0.09
10/21/2020 16:158-0.08
10/21/2020 15:157-0.09
10/21/2020 14:158-0.08
10/21/2020 13:15 -0.07
10/21/2020 12:158-0.06
10/21/2020 11:159-0.03
10/21/2020 10:159-0.04
10/21/2020 09:157-0.1
10/21/2020 08:155-0.21
10/21/2020 07:154-0.25
10/21/2020 06:15 -0.26
10/21/2020 03:154-0.26
10/21/2020 02:155-0.2
10/21/2020 01:155-0.18
10/21/2020 00:156-0.14
10/20/2020 23:157-0.12
10/20/2020 22:15 -0.12
10/20/2020 21:15 -0.11
10/20/2020 20:15 -0.11
10/20/2020 19:15 -0.1
10/20/2020 18:15 -0.12
10/20/2020 17:157-0.11
10/20/2020 16:158-0.08
10/20/2020 13:15 -0.08
10/20/2020 12:15 -0.06
10/20/2020 11:15 -0.06
10/20/2020 10:158-0.08
10/20/2020 09:157-0.13
10/20/2020 08:155-0.19
10/20/2020 07:154-0.24
10/20/2020 06:15 -0.26
10/20/2020 04:154-0.26
10/20/2020 03:155-0.23
10/20/2020 02:15 -0.22
10/20/2020 01:155-0.18
10/20/2020 00:156-0.16
10/19/2020 23:157-0.12
10/19/2020 22:15 -0.11
10/19/2020 21:15 -0.1
10/19/2020 20:15 -0.1
10/19/2020 19:157-0.09
10/19/2020 18:158-0.08
10/19/2020 17:157-0.1
10/19/2020 16:158-0.08
10/19/2020 15:15 -0.07
10/19/2020 13:15 -0.07
10/19/2020 12:15 -0.05
10/19/2020 11:158-0.05
10/19/2020 10:159-0.03
10/19/2020 09:157-0.11
10/19/2020 08:156-0.14
10/19/2020 07:155-0.19
10/19/2020 06:15 -0.21
10/19/2020 05:15 -0.23
10/19/2020 04:15 -0.23
10/19/2020 03:15 -0.2
10/19/2020 02:155-0.2
10/19/2020 01:156-0.16
10/19/2020 00:157-0.13
10/18/2020 23:157-0.09
10/18/2020 22:158-0.08
10/18/2020 21:158-0.08
10/18/2020 20:157-0.09
10/18/2020 19:157-0.09
10/18/2020 18:158-0.08
10/18/2020 17:15 -0.07
10/18/2020 16:15 -0.07
10/18/2020 15:15 -0.06
10/18/2020 14:158-0.05
10/18/2020 13:159-0.04
10/18/2020 12:15 -0.03
10/18/2020 11:159-0.03
10/18/2020 10:158-0.07
10/18/2020 09:156-0.15
10/18/2020 08:155-0.19
10/18/2020 07:15 -0.19
10/18/2020 06:15 -0.22
10/18/2020 05:15 -0.19
10/18/2020 04:15 -0.2
10/18/2020 03:15 -0.19
10/18/2020 02:155-0.18
10/18/2020 01:156-0.14
10/18/2020 00:157-0.11
10/17/2020 23:15 -0.1
10/17/2020 22:15 -0.11
10/17/2020 21:15 -0.1
10/17/2020 20:157-0.09
10/17/2020 19:158-0.08
10/17/2020 18:15 -0.08
10/17/2020 17:15 -0.07
10/17/2020 15:15 -0.07
10/17/2020 14:15 -0.06
10/17/2020 13:15 -0.06
10/17/2020 12:15 -0.05
10/17/2020 11:15 -0.06
10/17/2020 10:158-0.08
10/17/2020 09:156-0.14
10/17/2020 08:156-0.17
10/17/2020 07:155-0.19
10/17/2020 06:15 -0.22
10/17/2020 05:15 -0.2
10/17/2020 03:15 -0.2
10/17/2020 02:155-0.18
10/17/2020 01:156-0.14
10/17/2020 00:157-0.12
10/16/2020 23:15 -0.12
10/16/2020 22:15 -0.1
10/16/2020 21:15 -0.09
10/16/2020 20:15 -0.1
10/16/2020 19:157-0.1
10/16/2020 18:158-0.08
10/16/2020 16:158-0.08
10/16/2020 15:157-0.09
10/16/2020 14:158-0.08
10/16/2020 13:15 -0.06
10/16/2020 12:158-0.05
10/16/2020 11:159-0.04
10/16/2020 10:159-0.04
10/16/2020 09:158-0.05
10/16/2020 08:156-0.15
10/16/2020 07:155-0.21
10/16/2020 06:15 -0.22
10/16/2020 05:15 -0.22
10/16/2020 04:15 -0.2
10/16/2020 03:15 -0.2
10/16/2020 02:155-0.19
10/16/2020 01:156-0.16
10/16/2020 00:157-0.12
10/15/2020 23:15 -0.11
10/15/2020 22:15 -0.1
10/15/2020 21:15 -0.09
10/15/2020 20:15 -0.09
10/15/2020 19:157-0.1
10/15/2020 18:158-0.08
10/15/2020 17:15 -0.07
10/15/2020 16:15 -0.06
10/15/2020 15:15 -0.05
10/15/2020 14:15 -0.05
10/15/2020 13:15 -0.06
10/15/2020 12:15 -0.05
10/15/2020 11:158-0.06
10/15/2020 10:159-0.04
10/15/2020 09:157-0.11
10/15/2020 08:156-0.16
10/15/2020 07:155-0.21
10/15/2020 06:15 -0.2
10/15/2020 05:15 -0.18
10/15/2020 04:15 -0.19
10/15/2020 03:15 -0.19
10/15/2020 02:155-0.2
10/15/2020 01:156-0.17
10/15/2020 00:157-0.13
10/14/2020 23:15 -0.1
10/14/2020 22:15 -0.1
10/14/2020 21:157-0.09
10/14/2020 20:158-0.08
10/14/2020 19:15 -0.08
10/14/2020 18:15 -0.06
10/14/2020 17:15 -0.07
10/14/2020 16:15 -0.07
10/14/2020 15:15 -0.06
10/14/2020 14:158-0.06
10/14/2020 13:159-0.04
10/14/2020 12:15 -0.02
10/14/2020 11:159-0.01
10/14/2020 10:15100.01
10/14/2020 09:159-0.02
10/14/2020 08:157-0.09
10/14/2020 07:155-0.2
10/14/2020 06:15 -0.19
10/14/2020 05:15 -0.2
10/14/2020 04:155-0.2
10/14/2020 03:156-0.17
10/14/2020 02:15 -0.16
10/14/2020 01:156-0.14
10/14/2020 00:157-0.11
10/13/2020 23:158-0.07
10/13/2020 22:158-0.08
10/13/2020 21:157-0.09
10/13/2020 20:157-0.09
10/13/2020 19:158-0.08
10/13/2020 18:15 -0.07
10/13/2020 16:15 -0.07
10/13/2020 15:15 -0.08
10/13/2020 13:15 -0.08
10/13/2020 12:15 -0.06
10/13/2020 11:158-0.05
10/13/2020 10:159-0.02
10/13/2020 09:157-0.11
10/13/2020 08:153-0.18
10/13/2020 07:152-0.24
10/13/2020 06:15 -0.26
10/13/2020 05:15 -0.23
10/13/2020 04:15 -0.24
10/13/2020 03:15 -0.24
10/13/2020 02:152-0.22
10/13/2020 01:153-0.18
10/13/2020 00:154-0.12
10/12/2020 22:15 -0.12
10/12/2020 21:15 -0.11
10/12/2020 19:154-0.11
10/12/2020 18:155-0.1
10/12/2020 17:155-0.07
10/12/2020 16:156-0.06
10/12/2020 15:156-0.05
10/12/2020 14:157-0.01
10/12/2020 13:155-0.07
10/12/2020 12:157-0.03
10/12/2020 11:15 -0.02
10/12/2020 10:157-0.02
10/12/2020 09:155-0.09
10/12/2020 08:155-0.1
10/12/2020 07:154-0.13
10/12/2020 06:152-0.21
10/12/2020 05:153-0.18
10/12/2020 04:15 -0.17
10/12/2020 03:15 -0.17
10/12/2020 02:153-0.15
10/12/2020 01:155-0.1
10/12/2020 00:15 -0.1
10/11/2020 23:15 -0.07
10/11/2020 21:155-0.07
10/11/2020 20:156-0.06
10/11/2020 17:15 -0.06
10/11/2020 16:15 -0.05
10/11/2020 15:156-0.04
10/11/2020 14:157-0.02
10/11/2020 13:1580.01
10/11/2020 12:157-0.01
10/11/2020 11:157-0.03
10/11/2020 10:155-0.07
10/11/2020 09:155-0.1
10/11/2020 08:153-0.15
10/11/2020 07:153-0.15
10/11/2020 06:154-0.14
10/11/2020 05:154-0.13
10/11/2020 04:155-0.1
10/11/2020 03:15 -0.09
10/11/2020 02:155-0.09
10/11/2020 01:156-0.05
10/11/2020 00:157-0.02
10/10/2020 23:1590.03
10/10/2020 22:1590.05
10/10/2020 21:15110.09
10/10/2020 20:15120.12
10/10/2020 19:15130.14
10/10/2020 18:15160.19
10/10/2020 17:15260.34
10/10/2020 16:15100.06
10/10/2020 15:1590.05
10/10/2020 14:15100.06
10/10/2020 13:15120.1
10/10/2020 12:15100.07
10/10/2020 11:156-0.05
10/10/2020 10:154-0.13
10/10/2020 09:153-0.18
10/10/2020 08:152-0.27
10/10/2020 07:151-0.28
10/10/2020 06:152-0.25
10/10/2020 05:15 -0.23
10/10/2020 04:15 -0.22
10/10/2020 03:15 -0.22
10/10/2020 02:152-0.21
10/10/2020 01:153-0.18
10/10/2020 00:154-0.14
10/09/2020 22:15 -0.14
10/09/2020 21:15 -0.13
10/09/2020 20:15 -0.13
10/09/2020 19:15 -0.12
10/09/2020 18:15 -0.11
10/09/2020 16:154-0.11
10/09/2020 15:155-0.1
10/09/2020 14:15 -0.1
10/09/2020 13:15 -0.08
10/09/2020 11:155-0.08
10/09/2020 10:154-0.13
10/09/2020 09:153-0.2
10/09/2020 08:154-0.13
10/09/2020 07:152-0.25
10/09/2020 06:15 -0.26
10/09/2020 05:15 -0.27
10/09/2020 04:15 -0.25
10/09/2020 03:15 -0.25
10/09/2020 02:152-0.23
10/09/2020 01:153-0.2
10/09/2020 00:154-0.14
10/08/2020 23:15 -0.13
10/08/2020 22:154-0.11
10/08/2020 20:155-0.1
10/08/2020 18:15 -0.08
10/08/2020 17:15 -0.1
10/08/2020 16:155-0.09
10/08/2020 15:156-0.06
10/08/2020 14:156-0.06
10/08/2020 13:157-0.03
10/08/2020 12:1580
10/08/2020 11:156-0.04
10/08/2020 10:156-0.04
10/08/2020 09:154-0.11
10/08/2020 08:154-0.13
10/08/2020 07:152-0.21
10/08/2020 06:153-0.2
10/08/2020 05:15 -0.19
10/08/2020 04:15 -0.18
10/08/2020 03:15 -0.19
10/08/2020 02:15 -0.18
10/08/2020 01:153-0.16
10/08/2020 00:154-0.14
10/07/2020 23:154-0.11
10/07/2020 22:155-0.1
10/07/2020 21:154-0.11
10/07/2020 20:155-0.1
10/07/2020 19:15 -0.1
10/07/2020 18:15 -0.09
10/07/2020 16:15 -0.09
10/07/2020 15:15 -0.07
10/07/2020 14:15 -0.07
10/07/2020 13:155-0.09
10/07/2020 12:154-0.11
10/07/2020 11:15 -0.11
10/07/2020 10:15 -0.12
10/07/2020 09:15 -0.13
10/07/2020 08:154-0.14
10/07/2020 07:153-0.2
10/07/2020 06:152-0.22
10/07/2020 05:153-0.18
10/07/2020 04:15 -0.18
10/07/2020 03:15 -0.17
10/07/2020 01:15 -0.17
10/07/2020 00:153-0.15
10/06/2020 23:154-0.11
10/06/2020 22:155-0.1
10/06/2020 21:155-0.1
10/06/2020 20:154-0.11
10/06/2020 19:154-0.12
10/06/2020 18:155-0.1
10/06/2020 17:15 -0.08
10/06/2020 16:155-0.07
10/06/2020 15:156-0.06
10/06/2020 13:156-0.04
10/06/2020 12:157-0.03
10/06/2020 10:157-0.02
10/06/2020 09:154-0.11
10/06/2020 08:153-0.15
10/06/2020 07:152-0.25
10/06/2020 06:153-0.2
10/06/2020 05:152-0.21
10/06/2020 04:153-0.2
10/06/2020 02:153-0.2
10/06/2020 01:154-0.14
10/06/2020 00:154-0.12
10/05/2020 23:155-0.09
10/05/2020 22:15 -0.08
10/05/2020 21:15 -0.07
10/05/2020 20:15 -0.08
10/05/2020 19:15 -0.09
10/05/2020 18:15 -0.09
10/05/2020 17:15 -0.08
10/05/2020 16:155-0.07
10/05/2020 15:156-0.06
10/05/2020 14:15 -0.05
10/05/2020 13:156-0.05
10/05/2020 12:157-0.02
10/05/2020 11:157-0.02
10/05/2020 10:1580
10/05/2020 09:156-0.04
10/05/2020 08:153-0.16
10/05/2020 07:152-0.21
10/05/2020 06:153-0.18
10/05/2020 05:15 -0.19
10/05/2020 04:15 -0.17
10/05/2020 03:15 -0.19
10/05/2020 02:15 -0.19
10/05/2020 01:153-0.15
10/05/2020 00:154-0.11
10/04/2020 23:155-0.09
10/04/2020 22:155-0.09
10/04/2020 21:156-0.06
10/04/2020 20:156-0.05
10/04/2020 19:155-0.08
10/04/2020 18:15 -0.07
10/04/2020 17:155-0.07
10/04/2020 16:156-0.06
10/04/2020 15:15 -0.05
10/04/2020 14:15 -0.04
10/04/2020 13:156-0.04
10/04/2020 12:157-0.02
10/04/2020 11:157-0.02
10/04/2020 10:156-0.04
10/04/2020 09:154-0.12
10/04/2020 08:153-0.15
10/04/2020 07:15 -0.16
10/04/2020 06:153-0.15
10/04/2020 05:154-0.12
10/04/2020 04:153-0.15
10/04/2020 02:153-0.15
10/04/2020 01:154-0.13
10/04/2020 00:155-0.09
10/03/2020 23:15 -0.08
10/03/2020 22:155-0.08
10/03/2020 21:156-0.06
10/03/2020 20:156-0.05
10/03/2020 19:155-0.07
10/03/2020 18:15 -0.08
10/03/2020 17:15 -0.07
10/03/2020 16:155-0.07
10/03/2020 15:156-0.06
10/03/2020 14:156-0.05
10/03/2020 13:157-0.03
10/03/2020 12:157-0.01
10/03/2020 11:156-0.05
10/03/2020 10:155-0.1
10/03/2020 09:154-0.14
10/03/2020 08:153-0.17
10/03/2020 07:15 -0.2
10/03/2020 06:15 -0.18
10/03/2020 05:15 -0.19
10/03/2020 04:15 -0.17
10/03/2020 03:15 -0.19
10/03/2020 02:15 -0.16
10/03/2020 01:153-0.15
10/03/2020 00:154-0.12
10/02/2020 23:155-0.08
10/02/2020 22:15 -0.08
10/02/2020 21:15 -0.07
10/02/2020 20:155-0.07
10/02/2020 19:156-0.05
10/02/2020 18:15 -0.05
10/02/2020 17:15 -0.06
10/02/2020 16:156-0.05
10/02/2020 15:157-0.03
10/02/2020 14:156-0.05
10/02/2020 13:157-0.03
10/02/2020 12:157-0.02
10/02/2020 11:1580
10/02/2020 10:1580
10/02/2020 09:155-0.08
10/02/2020 08:154-0.12
10/02/2020 07:153-0.18
10/02/2020 06:15 -0.19
10/02/2020 05:15 -0.17
10/02/2020 04:15 -0.17
10/02/2020 03:153-0.15
10/02/2020 02:154-0.13
10/02/2020 01:155-0.1
10/02/2020 00:15 -0.07
10/01/2020 22:155-0.07
10/01/2020 21:156-0.06
10/01/2020 20:15 -0.06
10/01/2020 19:15 -0.05
10/01/2020 18:15 -0.06
10/01/2020 17:15 -0.06
10/01/2020 16:15 -0.05
10/01/2020 15:15 -0.04
10/01/2020 14:15 -0.05
10/01/2020 13:15 -0.05
10/01/2020 12:156-0.04
10/01/2020 11:157-0.03
10/01/2020 10:156-0.04
10/01/2020 09:155-0.09
10/01/2020 08:15 -0.08
10/01/2020 07:155-0.09
10/01/2020 06:153-0.15
10/01/2020 05:15 -0.17
10/01/2020 04:15 -0.18
10/01/2020 03:153-0.17
10/01/2020 02:154-0.13
10/01/2020 01:155-0.08

Start Stop